Glover, Vermont
Current Conditions -  °F | °C
As of 3:35 AM on Sunday 26 Oct 2014 (Local Time) from KCDA Reporting Station
Broken Clouds Broken Clouds  
Wind Chill: 45°   Ceiling: 6000
Heat Index: 45°   Visibility: 10mi
Dew Point: 42°   Wind: 3mph
Humidity: 91%   Direction: 210°SSW
Pressure: 29.42"   Gusts: NA
Location:  44.7°N, 72.21°W
Report Text: KCDA 260735Z AUTO 21003KT 10SM SCT047 BKN060 BKN075 07/06 A2942 RMK AO2 T00700057
Loading
Personal Weather Stations






























Interactive Weather Map
Tropical Storm Tracking
New forecast layout! Learn more

10-Day Weather Forecast

Advertisements
Track Severe Weather on mobile